Time;durP1;ratioP1;P1;durP2;ratioP2;P2;SDS_P1;SDS_P2;PMS_P1;PMS_P2;Temp;Humidity;BMP_temperature;BMP_pressure;BME280_temperature;BME280_humidity;BME280_pressure;Samples;Min_cycle;Max_cycle;Signal;HPM_P1;HPM_P2
2024/02/11 00:01:08;;;;;;;46.78;26.88;;;10.20;99.90;;;;;;5070782;28;20494;-49
2024/02/11 00:03:37;;;;;;;53.72;31.00;;;10.20;99.90;;;;;;5074902;28;20027;-48
2024/02/11 00:06:08;;;;;;;54.33;30.58;;;10.20;99.90;;;;;;5075129;28;20382;-48
2024/02/11 00:08:34;;;;;;;59.22;31.60;;;10.20;99.90;;;;;;5077466;28;20550;-48
2024/02/11 00:10:59;;;;;;;62.13;33.22;;;10.10;99.90;;;;;;5079484;28;20069;-46
2024/02/11 00:13:25;;;;;;;46.95;28.83;;;10.10;99.90;;;;;;5069781;28;20070;-49
2024/02/11 00:15:50;;;;;;;58.25;31.58;;;10.10;99.90;;;;;;5080857;28;20089;-48
2024/02/11 00:18:19;;;;;;;60.50;31.35;;;10.10;99.90;;;;;;5076331;28;20028;-48
2024/02/11 00:20:45;;;;;;;65.68;34.97;;;10.10;99.90;;;;;;5077554;28;20051;-47
2024/02/11 00:23:12;;;;;;;67.43;33.80;;;10.10;99.90;;;;;;5070145;28;20052;-50
2024/02/11 00:25:39;;;;;;;57.92;30.30;;;10.10;99.90;;;;;;5071194;28;20028;-49
2024/02/11 00:28:06;;;;;;;53.90;29.92;;;10.10;99.90;;;;;;5072928;28;20512;-48
2024/02/11 00:30:32;;;;;;;58.97;30.95;;;10.10;99.90;;;;;;5074792;28;20031;-51
2024/02/11 00:32:57;;;;;;;60.80;32.83;;;10.10;99.90;;;;;;5078184;28;20115;-49
2024/02/11 00:35:27;;;;;;;54.22;30.63;;;10.00;99.90;;;;;;5079170;28;20017;-50
2024/02/11 00:37:53;;;;;;;63.25;31.98;;;10.00;99.90;;;;;;5083720;28;20031;-49
2024/02/11 00:40:19;;;;;;;66.43;32.08;;;10.00;99.90;;;;;;5086336;28;20036;-49
2024/02/11 00:42:45;;;;;;;57.38;30.05;;;10.00;99.90;;;;;;5081712;28;20024;-48
2024/02/11 00:45:14;;;;;;;65.00;31.10;;;10.00;99.90;;;;;;5073155;28;20372;-48
2024/02/11 00:47:40;;;;;;;57.28;28.23;;;9.90;99.90;;;;;;5075317;28;20082;-48
2024/02/11 00:50:07;;;;;;;64.70;32.42;;;9.90;99.90;;;;;;5081129;28;20021;-48
2024/02/11 00:52:33;;;;;;;59.47;30.92;;;9.90;99.90;;;;;;5080636;28;20045;-47
2024/02/11 00:54:59;;;;;;;53.45;28.42;;;9.90;99.90;;;;;;5081799;28;20029;-49
2024/02/11 00:57:25;;;;;;;68.20;30.98;;;9.90;99.90;;;;;;5077948;28;20669;-46
2024/02/11 00:59:50;;;;;;;61.97;29.20;;;9.90;99.90;;;;;;5083304;28;20418;-47
2024/02/11 01:02:16;;;;;;;58.50;28.23;;;9.80;99.90;;;;;;5079834;28;20085;-51
2024/02/11 01:04:41;;;;;;;65.72;32.03;;;9.80;99.90;;;;;;5075672;28;20024;-51
2024/02/11 01:07:07;;;;;;;65.43;30.58;;;9.80;99.90;;;;;;5076926;28;20028;-47
2024/02/11 01:09:34;;;;;;;59.92;29.90;;;9.80;99.90;;;;;;5071580;28;20024;-48
2024/02/11 01:11:59;;;;;;;64.70;30.52;;;9.80;99.90;;;;;;5075929;28;20024;-47
2024/02/11 01:14:25;;;;;;;62.67;30.08;;;9.80;99.90;;;;;;5082584;28;20029;-48
2024/02/11 01:16:51;;;;;;;62.83;29.75;;;9.70;99.90;;;;;;5087942;28;20064;-50
2024/02/11 01:19:16;;;;;;;63.78;32.60;;;9.70;99.90;;;;;;5072459;28;20558;-50
2024/02/11 01:21:44;;;;;;;62.75;31.23;;;9.70;99.90;;;;;;5087389;28;20370;-50
2024/02/11 01:24:10;;;;;;;57.78;28.48;;;9.70;99.90;;;;;;5079456;28;20070;-48
2024/02/11 01:26:37;;;;;;;59.35;29.17;;;9.60;99.90;;;;;;5083152;28;20032;-50
2024/02/11 01:29:04;;;;;;;70.53;31.92;;;9.60;99.90;;;;;;5077450;28;20065;-48
2024/02/11 01:31:29;;;;;;;71.32;31.55;;;9.60;99.90;;;;;;5082405;28;20430;-51
2024/02/11 01:33:55;;;;;;;60.65;31.45;;;9.60;99.90;;;;;;5082052;28;20107;-50
2024/02/11 01:36:20;;;;;;;74.93;31.90;;;9.60;99.90;;;;;;5085818;28;20024;-49
2024/02/11 01:38:46;;;;;;;70.82;31.65;;;9.60;99.90;;;;;;5085409;28;20024;-48
2024/02/11 01:41:11;;;;;;;63.47;31.38;;;9.50;99.90;;;;;;5079140;28;20055;-48
2024/02/11 01:43:37;;;;;;;63.22;29.92;;;9.60;99.90;;;;;;5072469;28;20024;-49
2024/02/11 01:46:04;;;;;;;78.43;34.15;;;9.60;99.90;;;;;;5080200;28;20028;-50
2024/02/11 01:48:30;;;;;;;59.78;29.80;;;9.60;99.90;;;;;;5081549;28;20174;-49
2024/02/11 01:50:57;;;;;;;69.10;32.17;;;9.60;99.90;;;;;;5069647;28;20016;-49
2024/02/11 01:53:25;;;;;;;71.72;31.95;;;9.60;99.90;;;;;;5069882;28;20592;-47
2024/02/11 01:55:51;;;;;;;72.13;32.75;;;9.60;99.90;;;;;;5073615;28;20025;-48
2024/02/11 01:58:18;;;;;;;75.53;34.83;;;9.60;99.90;;;;;;5076115;28;20133;-47
2024/02/11 02:00:44;;;;;;;81.15;36.08;;;9.60;99.90;;;;;;5065566;28;20103;-49
2024/02/11 02:03:12;;;;;;;79.50;35.28;;;9.60;99.90;;;;;;5078277;28;20161;-49
2024/02/11 02:05:38;;;;;;;68.45;32.63;;;9.60;99.90;;;;;;5078520;28;20469;-48
2024/02/11 02:08:04;;;;;;;78.70;34.22;;;9.60;99.90;;;;;;5071601;28;20231;-49
2024/02/11 02:10:30;;;;;;;66.45;31.70;;;9.60;99.90;;;;;;5075376;28;20496;-47
2024/02/11 02:12:56;;;;;;;75.72;35.17;;;9.60;99.90;;;;;;5085602;28;20381;-51
2024/02/11 02:15:24;;;;;;;75.15;34.35;;;9.60;99.90;;;;;;5075365;28;20020;-49
2024/02/11 02:17:50;;;;;;;70.03;34.50;;;9.60;99.90;;;;;;5079791;28;20016;-47
2024/02/11 02:20:16;;;;;;;77.60;35.65;;;9.60;99.90;;;;;;5081938;28;20028;-49
2024/02/11 02:22:43;;;;;;;70.70;32.58;;;9.60;99.90;;;;;;5078313;28;20094;-47
2024/02/11 02:25:09;;;;;;;67.63;33.35;;;9.60;99.90;;;;;;5084241;28;20415;-46
2024/02/11 02:27:37;;;;;;;71.22;33.17;;;9.60;99.90;;;;;;5075582;28;20024;-49
2024/02/11 02:30:04;;;;;;;72.95;33.78;;;9.60;99.90;;;;;;5075066;28;20460;-47
2024/02/11 02:32:29;;;;;;;85.18;38.97;;;9.60;99.90;;;;;;5068098;28;20099;-48
2024/02/11 02:34:55;;;;;;;78.95;36.65;;;9.60;99.90;;;;;;5084270;28;20444;-48
2024/02/11 02:37:20;;;;;;;82.80;36.75;;;9.60;99.90;;;;;;5082138;28;20031;-48
2024/02/11 02:39:46;;;;;;;82.03;36.72;;;9.60;99.90;;;;;;5073625;28;20412;-48
2024/02/11 02:42:12;;;;;;;87.13;40.08;;;9.60;99.90;;;;;;5073400;28;20481;-50
2024/02/11 02:44:37;;;;;;;87.93;41.38;;;9.60;99.90;;;;;;5082727;28;20115;-50
2024/02/11 02:47:03;;;;;;;96.85;42.33;;;9.50;99.90;;;;;;5071751;28;20033;-48
2024/02/11 02:49:29;;;;;;;86.63;39.47;;;9.50;99.90;;;;;;5075421;28;20060;-48
2024/02/11 02:52:01;;;;;;;97.82;40.95;;;9.50;99.90;;;;;;5079202;28;20059;-51
2024/02/11 02:54:27;;;;;;;84.55;40.53;;;9.50;99.90;;;;;;5080941;28;20089;-47
2024/02/11 02:56:52;;;;;;;84.78;37.40;;;9.50;99.90;;;;;;5079811;28;20033;-47
2024/02/11 02:59:18;;;;;;;80.95;38.35;;;9.60;99.90;;;;;;5068726;28;20051;-48
2024/02/11 03:01:46;;;;;;;85.95;39.30;;;9.60;99.90;;;;;;5082962;28;20066;-51
2024/02/11 03:04:12;;;;;;;84.28;37.72;;;9.60;99.90;;;;;;5082687;28;20031;-48
2024/02/11 03:06:38;;;;;;;85.30;41.10;;;9.60;99.90;;;;;;5076243;28;20028;-48
2024/02/11 03:09:07;;;;;;;96.15;41.80;;;9.60;99.90;;;;;;5077748;28;20028;-46
2024/02/11 03:11:33;;;;;;;84.93;39.95;;;9.60;99.90;;;;;;5071538;28;20024;-49
2024/02/11 03:14:00;;;;;;;84.88;39.40;;;9.60;99.90;;;;;;5073541;28;20029;-48
2024/02/11 03:16:27;;;;;;;83.05;39.08;;;9.60;99.90;;;;;;5068408;28;20044;-48
2024/02/11 03:18:52;;;;;;;78.93;39.25;;;9.60;99.90;;;;;;5077737;28;20024;-47
2024/02/11 03:21:19;;;;;;;86.88;42.33;;;9.60;99.90;;;;;;5081038;28;20385;-49
2024/02/11 03:23:44;;;;;;;86.80;41.92;;;9.60;99.90;;;;;;5082069;28;20080;-48
2024/02/11 03:26:11;;;;;;;102.55;47.15;;;9.60;99.90;;;;;;5076280;28;20103;-48
2024/02/11 03:28:40;;;;;;;91.47;42.35;;;9.70;99.90;;;;;;5080749;28;20024;-51
2024/02/11 03:31:07;;;;;;;84.05;39.45;;;9.60;99.90;;;;;;5082374;28;20028;-50
2024/02/11 03:33:33;;;;;;;74.75;37.70;;;9.70;99.90;;;;;;5074382;28;20028;-47
2024/02/11 03:35:59;;;;;;;80.90;39.17;;;9.70;99.90;;;;;;5083446;28;20024;-50
2024/02/11 03:38:24;;;;;;;80.07;40.28;;;9.70;99.90;;;;;;5074301;28;20040;-46
2024/02/11 03:40:52;;;;;;;78.93;39.17;;;9.70;99.90;;;;;;5077138;28;20026;-48
2024/02/11 03:43:19;;;;;;;76.32;39.42;;;9.70;99.90;;;;;;5075117;28;20020;-49
2024/02/11 03:45:46;;;;;;;86.80;41.22;;;9.70;99.90;;;;;;5075862;28;20081;-49
2024/02/11 03:48:12;;;;;;;77.57;39.15;;;9.70;99.90;;;;;;5081539;28;20402;-50
2024/02/11 03:50:39;;;;;;;77.30;39.75;;;9.70;99.90;;;;;;5068941;28;20458;-48
2024/02/11 03:53:05;;;;;;;82.20;38.95;;;9.70;99.90;;;;;;5081465;28;20020;-51
2024/02/11 03:55:31;;;;;;;76.20;39.45;;;9.70;99.90;;;;;;5072783;28;20390;-47
2024/02/11 03:58:01;;;;;;;74.85;40.15;;;9.70;99.90;;;;;;5067420;28;20053;-48
2024/02/11 04:00:27;;;;;;;;;;;9.70;99.90;;;;;;5078820;28;20359;-49
2024/02/11 04:02:53;;;;;;;72.40;37.38;;;9.80;99.90;;;;;;5070995;28;19915;-49
2024/02/11 04:05:20;;;;;;;67.55;38.00;;;9.80;99.90;;;;;;5068947;28;20045;-47
2024/02/11 04:07:46;;;;;;;69.18;37.60;;;9.70;99.90;;;;;;5075324;28;20563;-50
2024/02/11 04:10:19;;;;;;;72.15;37.90;;;9.70;99.90;;;;;;5075170;28;20028;-47
2024/02/11 04:12:52;;;;;;;69.75;38.28;;;9.80;99.90;;;;;;5069906;28;20089;-46
2024/02/11 04:15:22;;;;;;;66.78;38.17;;;9.80;99.90;;;;;;5074065;28;20489;-47
2024/02/11 04:17:53;;;;;;;80.80;40.95;;;9.80;99.90;;;;;;5077812;28;20078;-46
2024/02/11 04:20:27;;;;;;;75.25;38.33;;;9.80;99.90;;;;;;5072697;28;20116;-48
2024/02/11 04:23:03;;;;;;;81.13;40.13;;;9.80;99.90;;;;;;5073286;28;20020;-49
2024/02/11 04:25:33;;;;;;;68.78;37.08;;;9.80;99.90;;;;;;5075654;28;20032;-50
2024/02/11 04:28:05;;;;;;;76.13;38.88;;;9.70;99.90;;;;;;5076587;28;20028;-47
2024/02/11 04:30:31;;;;;;;77.70;39.15;;;9.80;99.90;;;;;;5068690;28;20063;-47
2024/02/11 04:33:04;;;;;;;77.40;38.70;;;9.80;99.90;;;;;;5075797;28;20036;-47
2024/02/11 04:35:30;;;;;;;75.28;38.00;;;9.70;99.90;;;;;;5071918;28;20130;-49
2024/02/11 04:37:56;;;;;;;76.72;38.45;;;9.70;99.90;;;;;;5068172;28;20035;-51
2024/02/11 04:40:24;;;;;;;75.22;37.53;;;9.80;99.90;;;;;;5071833;28;20036;-49
2024/02/11 04:42:54;;;;;;;72.90;37.38;;;9.80;99.90;;;;;;5072216;28;20021;-47
2024/02/11 04:45:22;;;;;;;79.53;40.15;;;9.70;99.90;;;;;;5067261;28;20363;-49
2024/02/11 04:47:59;;;;;;;81.55;41.40;;;9.80;99.90;;;;;;5069396;28;20040;-49
2024/02/11 04:50:29;;;;;;;77.53;39.58;;;9.70;99.90;;;;;;5077381;28;20036;-50
2024/02/11 04:52:56;;;;;;;79.57;39.75;;;9.80;99.90;;;;;;5076644;28;20016;-48
2024/02/11 04:55:29;;;;;;;81.18;40.88;;;9.80;99.90;;;;;;5076674;28;20028;-50
2024/02/11 04:57:58;;;;;;;91.30;44.38;;;9.80;99.90;;;;;;5078608;28;20330;-47
2024/02/11 05:00:33;;;;;;;82.47;41.83;;;9.70;99.90;;;;;;5072499;28;20028;-50
2024/02/11 05:03:03;;;;;;;96.13;44.85;;;9.70;99.90;;;;;;5069071;28;20028;-50
2024/02/11 05:05:30;;;;;;;91.90;46.22;;;9.70;99.90;;;;;;5075061;28;20574;-47
2024/02/11 05:08:03;;;;;;;79.82;39.38;;;9.70;99.90;;;;;;5075519;28;20021;-47
2024/02/11 05:10:37;;;;;;;83.03;41.95;;;9.70;99.90;;;;;;5075161;28;20094;-47
2024/02/11 05:13:06;;;;;;;77.95;40.13;;;9.80;99.90;;;;;;5074723;28;20061;-47
2024/02/11 05:15:33;;;;;;;74.38;38.35;;;9.80;99.90;;;;;;5075923;28;20017;-48
2024/02/11 05:18:00;;;;;;;84.82;43.03;;;9.80;99.90;;;;;;5070391;28;20070;-49
2024/02/11 05:20:27;;;;;;;87.13;44.35;;;9.70;99.90;;;;;;5073388;28;20024;-47
2024/02/11 05:22:57;;;;;;;84.63;41.97;;;9.80;99.90;;;;;;5074698;28;20040;-48
2024/02/11 05:25:25;;;;;;;77.32;40.90;;;9.80;99.90;;;;;;5079112;28;20074;-51
2024/02/11 05:27:56;;;;;;;80.70;43.08;;;9.80;99.90;;;;;;5074496;28;20017;-50
2024/02/11 05:30:23;;;;;;;75.80;39.78;;;9.80;99.90;;;;;;5069979;28;20389;-48
2024/02/11 05:32:50;;;;;;;76.45;40.45;;;9.80;99.90;;;;;;5078719;28;20616;-50
2024/02/11 05:35:17;;;;;;;78.25;40.92;;;9.70;99.90;;;;;;5078789;28;20056;-51
2024/02/11 05:37:44;;;;;;;87.93;42.28;;;9.70;99.90;;;;;;5075348;28;20016;-48
2024/02/11 05:40:10;;;;;;;82.05;43.05;;;9.80;99.90;;;;;;5076897;28;20239;-48
2024/02/11 05:42:40;;;;;;;76.82;41.33;;;9.70;99.90;;;;;;5069949;28;20174;-48
2024/02/11 05:45:07;;;;;;;84.03;41.47;;;9.70;99.90;;;;;;5078038;28;20024;-50
2024/02/11 05:47:33;;;;;;;89.47;43.67;;;9.80;99.90;;;;;;5078333;28;20379;-50
2024/02/11 05:49:59;;;;;;;75.93;39.88;;;9.80;99.90;;;;;;5073205;28;20020;-49
2024/02/11 05:52:25;;;;;;;76.18;42.03;;;9.70;99.90;;;;;;5074063;28;20036;-49
2024/02/11 05:54:50;;;;;;;69.15;36.78;;;9.70;99.90;;;;;;5072462;28;20026;-47
2024/02/11 05:57:16;;;;;;;75.93;38.20;;;9.80;99.90;;;;;;5070634;28;20054;-47
2024/02/11 05:59:41;;;;;;;74.70;39.33;;;9.80;99.90;;;;;;5078220;28;20043;-48
2024/02/11 06:02:07;;;;;;;69.47;38.00;;;9.80;99.90;;;;;;5084398;28;20461;-48
2024/02/11 06:04:32;;;;;;;76.57;40.30;;;9.80;99.90;;;;;;5073656;28;20017;-48
2024/02/11 06:06:58;;;;;;;68.40;37.65;;;9.80;99.90;;;;;;5081864;28;20021;-48
2024/02/11 06:09:24;;;;;;;69.82;35.83;;;9.80;99.90;;;;;;5085399;28;20020;-49
2024/02/11 06:11:50;;;;;;;77.93;40.63;;;9.80;99.90;;;;;;5074437;28;20047;-49
2024/02/11 06:14:16;;;;;;;70.90;38.25;;;9.80;99.90;;;;;;5069093;28;20596;-47
2024/02/11 06:16:42;;;;;;;75.72;38.63;;;9.80;99.90;;;;;;5068970;28;20017;-51
2024/02/11 06:19:07;;;;;;;73.32;37.00;;;9.80;99.90;;;;;;5071556;28;20020;-48
2024/02/11 06:21:33;;;;;;;76.03;40.97;;;9.80;99.90;;;;;;5068976;28;20402;-49
2024/02/11 06:23:59;;;;;;;80.18;40.72;;;9.80;99.90;;;;;;5072079;28;20024;-51
2024/02/11 06:26:24;;;;;;;72.40;36.78;;;9.80;99.90;;;;;;5075657;28;20578;-47
2024/02/11 06:28:51;;;;;;;84.20;41.70;;;9.70;99.90;;;;;;5074302;28;20024;-47
2024/02/11 06:31:16;;;;;;;79.07;39.88;;;9.70;99.90;;;;;;5074651;28;20012;-47
2024/02/11 06:33:42;;;;;;;80.15;41.22;;;9.80;99.90;;;;;;5069083;28;20452;-49
2024/02/11 06:36:07;;;;;;;79.53;39.85;;;9.80;99.90;;;;;;5075595;28;20040;-50
2024/02/11 06:38:34;;;;;;;75.88;38.67;;;9.70;99.90;;;;;;5072483;28;20393;-51
2024/02/11 06:40:59;;;;;;;73.47;39.33;;;9.70;99.90;;;;;;5075147;28;20028;-50
2024/02/11 06:43:27;;;;;;;82.78;43.65;;;9.80;99.90;;;;;;5069047;28;20121;-50
2024/02/11 06:45:53;;;;;;;76.93;39.58;;;9.70;99.90;;;;;;5078026;28;20020;-49
2024/02/11 06:48:19;;;;;;;75.10;39.45;;;9.80;99.90;;;;;;5072319;28;20076;-50
2024/02/11 06:50:44;;;;;;;72.50;39.15;;;9.80;99.90;;;;;;5069391;28;20161;-48
2024/02/11 06:53:10;;;;;;;79.07;41.38;;;9.80;99.90;;;;;;5074482;28;20055;-48
2024/02/11 06:55:35;;;;;;;77.45;40.30;;;9.80;99.90;;;;;;5076123;28;20028;-48
2024/02/11 06:58:01;;;;;;;77.22;39.92;;;9.80;99.90;;;;;;5075597;28;20047;-51
2024/02/11 07:00:28;;;;;;;82.85;40.60;;;9.80;99.90;;;;;;5074886;28;20039;-56
2024/02/11 07:02:54;;;;;;;76.55;39.80;;;9.80;99.90;;;;;;5068606;28;20021;-57
2024/02/11 07:05:20;;;;;;;72.18;38.28;;;9.80;99.90;;;;;;5068325;28;20024;-56
2024/02/11 07:07:46;;;;;;;74.95;38.58;;;9.80;99.90;;;;;;5068007;28;20459;-57
2024/02/11 07:10:12;;;;;;;81.30;39.50;;;9.80;99.90;;;;;;5071540;28;20104;-57
2024/02/11 07:12:39;;;;;;;68.97;37.15;;;9.80;99.90;;;;;;5071766;28;20017;-57
2024/02/11 07:15:05;;;;;;;82.63;41.13;;;9.80;99.90;;;;;;5067809;28;20066;-56
2024/02/11 07:17:32;;;;;;;73.85;38.83;;;9.80;99.90;;;;;;5066962;28;20012;-56
2024/02/11 07:19:58;;;;;;;67.90;35.33;;;9.80;99.90;;;;;;5070563;28;20023;-57
2024/02/11 07:22:25;;;;;;;74.57;38.78;;;9.80;99.90;;;;;;5070750;28;20016;-56
2024/02/11 07:24:51;;;;;;;81.80;41.60;;;9.80;99.90;;;;;;5074945;28;20093;-56
2024/02/11 07:27:16;;;;;;;70.05;37.92;;;9.80;99.90;;;;;;5069894;28;20033;-56
2024/02/11 07:29:43;;;;;;;63.55;35.38;;;9.80;99.90;;;;;;5068296;28;20537;-57
2024/02/11 07:32:10;;;;;;;66.30;34.88;;;9.80;99.90;;;;;;5066382;28;20017;-57
2024/02/11 07:34:36;;;;;;;75.07;37.92;;;9.80;99.90;;;;;;5067069;28;20020;-56
2024/02/11 07:37:02;;;;;;;75.00;37.65;;;9.80;99.90;;;;;;5067827;28;20023;-56
2024/02/11 07:39:29;;;;;;;72.10;38.22;;;9.80;99.90;;;;;;5065888;28;20016;-55
2024/02/11 07:41:54;;;;;;;72.90;39.05;;;9.80;99.90;;;;;;5067515;28;20401;-57
2024/02/11 07:44:20;;;;;;;74.18;39.55;;;9.80;99.90;;;;;;5068997;28;20025;-56
2024/02/11 07:46:46;;;;;;;71.38;36.80;;;9.80;99.90;;;;;;5066113;28;20031;-57
2024/02/11 07:49:13;;;;;;;83.80;41.22;;;9.80;99.90;;;;;;5066791;28;20071;-57
2024/02/11 07:51:44;;;;;;;69.28;36.38;;;9.80;99.90;;;;;;5065227;28;20104;-57
2024/02/11 07:54:10;;;;;;;93.05;43.72;;;9.80;99.90;;;;;;5065291;28;20024;-56
2024/02/11 07:56:37;;;;;;;87.25;44.25;;;9.70;99.90;;;;;;5066706;28;20359;-56
2024/02/11 07:59:02;;;;;;;82.53;39.95;;;9.70;99.90;;;;;;5067177;28;20013;-57
2024/02/11 08:01:28;;;;;;;86.47;42.75;;;9.70;99.90;;;;;;5066025;28;20056;-56
2024/02/11 08:03:54;;;;;;;79.28;41.25;;;9.70;99.90;;;;;;5066984;28;20043;-57
2024/02/11 08:06:20;;;;;;;74.72;38.42;;;9.70;99.90;;;;;;5067052;28;20017;-57
2024/02/11 08:08:46;;;;;;;74.53;39.67;;;9.80;99.90;;;;;;5070624;28;20185;-57
2024/02/11 08:11:11;;;;;;;75.53;37.00;;;9.80;99.90;;;;;;5068655;28;20028;-56
2024/02/11 08:13:37;;;;;;;68.53;35.33;;;9.80;99.90;;;;;;5070078;28;20048;-57
2024/02/11 08:16:03;;;;;;;78.68;39.30;;;9.80;99.90;;;;;;5069698;28;20101;-57
2024/02/11 08:18:29;;;;;;;74.32;37.53;;;9.80;99.90;;;;;;5069370;28;20485;-57
2024/02/11 08:20:56;;;;;;;77.45;39.53;;;9.80;99.90;;;;;;5069624;28;20032;-57
2024/02/11 08:23:23;;;;;;;81.55;38.95;;;9.80;99.90;;;;;;5070031;28;20384;-56
2024/02/11 08:25:50;;;;;;;76.05;37.08;;;9.80;99.90;;;;;;5071950;28;20020;-57
2024/02/11 08:28:16;;;;;;;70.78;36.63;;;9.80;99.90;;;;;;5068851;28;20115;-57
2024/02/11 08:30:41;;;;;;;78.20;37.95;;;9.80;99.90;;;;;;5071482;28;20103;-56
2024/02/11 08:33:09;;;;;;;66.65;35.85;;;9.80;99.90;;;;;;5071643;28;20470;-56
2024/02/11 08:35:35;;;;;;;77.93;36.58;;;9.80;99.90;;;;;;5068856;28;20103;-56
2024/02/11 08:38:01;;;;;;;74.22;36.33;;;9.80;99.90;;;;;;5074664;28;20108;-56
2024/02/11 08:40:26;;;;;;;79.72;40.72;;;9.80;99.90;;;;;;5073596;28;20025;-56
2024/02/11 08:42:52;;;;;;;86.28;39.78;;;9.80;99.90;;;;;;5072166;28;20024;-56
2024/02/11 08:45:18;;;;;;;80.53;39.78;;;9.80;99.90;;;;;;5070086;28;20016;-56
2024/02/11 08:47:44;;;;;;;74.00;37.92;;;9.80;99.90;;;;;;5073255;28;20082;-57
2024/02/11 08:50:10;;;;;;;75.38;39.22;;;9.80;99.90;;;;;;5072688;28;20070;-57
2024/02/11 08:52:36;;;;;;;71.13;35.50;;;9.80;99.90;;;;;;5073400;28;20445;-57
2024/02/11 08:55:03;;;;;;;76.78;38.65;;;9.80;99.90;;;;;;5070689;28;20053;-57
2024/02/11 08:57:28;;;;;;;86.05;45.45;;;9.80;99.90;;;;;;5074880;28;20378;-57
2024/02/11 08:59:55;;;;;;;101.03;48.25;;;9.80;99.90;;;;;;5075684;28;20021;-57
2024/02/11 09:02:22;;;;;;;87.63;44.25;;;9.80;99.90;;;;;;5074331;28;20051;-57
2024/02/11 09:04:47;;;;;;;81.32;40.47;;;9.80;99.90;;;;;;5074979;28;20032;-57
2024/02/11 09:07:13;;;;;;;122.95;55.33;;;9.80;99.90;;;;;;5071219;28;20020;-57
2024/02/11 09:09:39;;;;;;;98.78;45.72;;;9.70;99.90;;;;;;5068893;28;20104;-57
2024/02/11 09:12:05;;;;;;;98.20;45.67;;;9.80;99.90;;;;;;5073174;28;20029;-57
2024/02/11 09:14:31;;;;;;;85.53;42.15;;;9.70;99.90;;;;;;5062863;28;20441;-57
2024/02/11 09:16:59;;;;;;;92.05;43.10;;;9.70;99.90;;;;;;5074772;28;20569;-57
2024/02/11 09:19:26;;;;;;;83.15;38.95;;;9.70;99.90;;;;;;5074945;28;20052;-57
2024/02/11 09:21:52;;;;;;;83.90;40.42;;;9.80;99.90;;;;;;5074304;28;20033;-57
2024/02/11 09:24:18;;;;;;;83.47;40.83;;;9.80;99.90;;;;;;5073657;28;20032;-57
2024/02/11 09:26:44;;;;;;;88.32;41.08;;;9.70;99.90;;;;;;5070815;28;20325;-57
2024/02/11 09:29:10;;;;;;;85.72;41.83;;;9.80;99.90;;;;;;5071996;28;20040;-57
2024/02/11 09:31:36;;;;;;;73.47;35.92;;;9.70;99.90;;;;;;5071784;28;20016;-57
2024/02/11 09:34:02;;;;;;;99.15;42.95;;;9.70;99.90;;;;;;5071065;28;20528;-57
2024/02/11 09:36:28;;;;;;;85.18;41.25;;;9.70;99.90;;;;;;5072553;28;20020;-57
2024/02/11 09:38:53;;;;;;;79.43;40.78;;;9.70;99.90;;;;;;5071835;28;20036;-57
2024/02/11 09:41:19;;;;;;;88.32;41.35;;;9.70;99.90;;;;;;5073400;28;20027;-57
2024/02/11 09:43:46;;;;;;;88.53;44.15;;;9.70;99.90;;;;;;5071353;28;20413;-57
2024/02/11 09:46:16;;;;;;;94.30;42.85;;;9.70;99.90;;;;;;5075191;28;20094;-57
2024/02/11 09:48:44;;;;;;;88.15;41.13;;;9.80;99.90;;;;;;5073027;28;20020;-57
2024/02/11 09:51:12;;;;;;;74.35;38.38;;;9.70;99.90;;;;;;5075016;28;20029;-57
2024/02/11 09:53:39;;;;;;;83.30;41.38;;;9.80;99.90;;;;;;5071032;28;20041;-57
2024/02/11 09:56:06;;;;;;;86.03;39.90;;;9.80;99.90;;;;;;5068030;28;20028;-57
2024/02/11 09:58:32;;;;;;;91.43;40.28;;;9.80;99.90;;;;;;5065010;28;20021;-57
2024/02/11 10:00:58;;;;;;;76.20;36.85;;;9.80;99.90;;;;;;5069552;28;20024;-57
2024/02/11 10:03:30;;;;;;;82.70;38.70;;;9.80;99.90;;;;;;5069836;28;20446;-57
2024/02/11 10:05:58;;;;;;;83.53;40.83;;;9.80;99.90;;;;;;5072784;28;20082;-61
2024/02/11 10:08:24;;;;;;;79.53;38.58;;;9.80;99.90;;;;;;5070264;28;20067;-62
2024/02/11 10:10:50;;;;;;;92.85;41.78;;;9.90;99.90;;;;;;5070882;28;20012;-62
2024/02/11 10:13:19;;;;;;;99.60;43.28;;;9.90;99.90;;;;;;5068826;28;20418;-62
2024/02/11 10:15:48;;;;;;;91.88;42.00;;;9.90;99.90;;;;;;5072473;28;20066;-61
2024/02/11 10:18:18;;;;;;;92.28;42.70;;;9.90;99.90;;;;;;5072438;28;20115;-62
2024/02/11 10:20:47;;;;;;;89.00;40.25;;;9.90;99.90;;;;;;5071576;28;20017;-61
2024/02/11 10:23:16;;;;;;;86.30;39.95;;;9.90;99.90;;;;;;5068924;28;20020;-61
2024/02/11 10:25:47;;;;;;;87.82;40.63;;;9.90;99.90;;;;;;5061207;28;20104;-62
2024/02/11 10:28:13;;;;;;;;;;;10.00;99.90;;;;;;5069282;28;20021;-62
2024/02/11 10:30:39;;;;;;;90.20;41.17;;;10.00;99.90;;;;;;5067352;28;19912;-61
2024/02/11 10:33:05;;;;;;;90.07;42.80;;;9.90;99.90;;;;;;5068393;28;20140;-62
2024/02/11 10:35:33;;;;;;;88.40;40.30;;;10.00;99.90;;;;;;5061958;28;20319;-61
2024/02/11 10:37:59;;;;;;;84.63;39.97;;;10.00;99.90;;;;;;5068401;28;20040;-61
2024/02/11 10:40:25;;;;;;;87.95;40.95;;;9.90;99.90;;;;;;5068310;28;20032;-62
2024/02/11 10:42:52;;;;;;;81.93;39.78;;;9.90;99.90;;;;;;5068991;28;20017;-62
2024/02/11 10:45:17;;;;;;;85.10;39.00;;;9.90;99.90;;;;;;5068180;28;20029;-62
2024/02/11 10:47:43;;;;;;;79.90;36.97;;;9.90;99.90;;;;;;5068606;28;20437;-61
2024/02/11 10:50:10;;;;;;;81.93;37.85;;;9.90;99.90;;;;;;5068423;28;20032;-61
2024/02/11 10:52:48;;;;;;;74.63;37.40;;;9.90;99.90;;;;;;5068435;28;20073;-62
2024/02/11 10:55:16;;;;;;;73.95;34.20;;;9.80;99.90;;;;;;5066442;28;20044;-62
2024/02/11 10:57:52;;;;;;;71.40;32.67;;;9.80;99.90;;;;;;5067883;28;20440;-62
2024/02/11 11:00:21;;;;;;;60.30;29.02;;;9.80;99.90;;;;;;5066537;28;20043;-61
2024/02/11 11:02:56;;;;;;;56.03;27.73;;;9.70;99.90;;;;;;5066327;28;20042;-62
2024/02/11 11:05:24;;;;;;;61.20;28.40;;;9.70;99.90;;;;;;5067406;28;20062;-62
2024/02/11 11:07:53;;;;;;;52.80;25.15;;;9.60;99.90;;;;;;5067657;28;20544;-62
2024/02/11 11:10:18;;;;;;;54.65;25.75;;;9.60;99.90;;;;;;5068328;28;20022;-61
2024/02/11 11:12:54;;;;;;;56.58;26.83;;;9.50;99.90;;;;;;5068782;28;20103;-61
2024/02/11 11:15:31;;;;;;;52.53;24.73;;;9.40;99.90;;;;;;5068556;28;20020;-61
2024/02/11 11:17:59;;;;;;;50.47;26.05;;;9.40;99.90;;;;;;5067110;28;20020;-61
2024/02/11 11:20:26;;;;;;;51.53;25.90;;;9.40;99.90;;;;;;5067190;28;20397;-61
2024/02/11 11:22:55;;;;;;;56.35;26.27;;;9.40;99.90;;;;;;5067004;28;20107;-62
2024/02/11 11:25:24;;;;;;;46.97;26.33;;;9.40;99.90;;;;;;5068466;28;20102;-62
2024/02/11 11:27:50;;;;;;;53.97;25.95;;;9.40;99.90;;;;;;5068648;28;20044;-62
2024/02/11 11:30:16;;;;;;;52.85;26.00;;;9.40;99.90;;;;;;5068575;28;20071;-62
2024/02/11 11:32:47;;;;;;;52.75;25.77;;;9.40;99.90;;;;;;5066721;28;20110;-61
2024/02/11 11:35:14;;;;;;;55.97;25.73;;;9.40;99.90;;;;;;5068958;28;20017;-63
2024/02/11 11:37:40;;;;;;;52.17;25.33;;;9.40;99.90;;;;;;5066476;28;20027;-62
2024/02/11 11:40:08;;;;;;;50.67;24.38;;;9.40;99.90;;;;;;5066524;28;20040;-61
2024/02/11 11:42:34;;;;;;;55.33;23.50;;;9.30;99.90;;;;;;5067608;28;20045;-62
2024/02/11 11:45:09;;;;;;;51.20;25.02;;;9.30;99.90;;;;;;5067521;28;20037;-60
2024/02/11 11:47:35;;;;;;;52.78;22.55;;;9.30;99.90;;;;;;5060045;28;20028;-61
2024/02/11 11:50:09;;;;;;;37.25;18.88;;;9.30;99.90;;;;;;5066591;28;20500;-61
2024/02/11 11:52:35;;;;;;;37.35;20.40;;;9.30;99.90;;;;;;5063238;28;20501;-61
2024/02/11 11:55:04;;;;;;;34.05;17.95;;;9.30;99.90;;;;;;5066436;28;20029;-61
2024/02/11 11:57:31;;;;;;;40.38;19.00;;;9.30;99.90;;;;;;5067057;28;20235;-60
2024/02/11 11:59:58;;;;;;;39.60;21.58;;;9.30;99.90;;;;;;5067702;28;20261;-62
2024/02/11 12:02:29;;;;;;;40.58;19.67;;;9.30;99.90;;;;;;5067408;28;20019;-62
2024/02/11 12:04:54;;;;;;;37.67;18.42;;;9.30;99.90;;;;;;5066550;28;20067;-61
2024/02/11 12:07:21;;;;;;;40.22;20.38;;;9.30;99.90;;;;;;5065557;28;20052;-62
2024/02/11 12:09:50;;;;;;;37.42;17.98;;;9.30;99.90;;;;;;5066538;28;20039;-61
2024/02/11 12:12:15;;;;;;;38.78;18.75;;;9.30;99.90;;;;;;5069599;28;20050;-61
2024/02/11 12:14:41;;;;;;;37.72;18.02;;;9.30;99.90;;;;;;5071171;28;20099;-62
2024/02/11 12:17:09;;;;;;;40.67;18.83;;;9.30;99.90;;;;;;5070667;28;20100;-62
2024/02/11 12:19:38;;;;;;;29.20;16.15;;;9.30;99.90;;;;;;5070829;28;20533;-62
2024/02/11 12:22:06;;;;;;;37.05;17.10;;;9.30;99.90;;;;;;5070932;28;20035;-62
2024/02/11 12:24:38;;;;;;;36.47;16.77;;;9.30;99.90;;;;;;5066838;28;20048;-62
2024/02/11 12:27:17;;;;;;;33.97;16.90;;;9.30;99.90;;;;;;5070516;28;20093;-62
2024/02/11 12:29:53;;;;;;;36.33;17.98;;;9.40;99.90;;;;;;5070582;28;20368;-62
2024/02/11 12:32:21;;;;;;;30.52;16.85;;;9.30;99.90;;;;;;5068992;28;20497;-62
2024/02/11 12:34:47;;;;;;;37.13;18.83;;;9.30;99.90;;;;;;5070555;28;20013;-62